メインページ
METAR-TAF:

METAR-TAF

空港 :

ボゴタ, コロンビア

エルドラド国際空港

緯度: 04-43N, 経度: 074-09W, 海抜: 2547m

現時点の気象観測

当レポートは25分前の17:00(UTC)に作成
東/南東の風 9kt
気温 19°C
湿度 43%
気圧 1026 hPa
視程10km以上
高度2000ftの千切れ雲あり

METAR: SKBO 231700Z 12009KT 9999 BKN020 19/06 A3031

時間: 12:25 (17:25 UTC)

予報

当レポートは6時間25分前の11:00(UTC)に作成
予報は23日の 12時(UTC)から 24日の 12時(UTC)まで有効
変向風 2kt
視程10km以上
高度2000ftの千切れ雲あり
23日の 12時(UTC)から 23日の 13時(UTC)まで一時的に
視程: 8000m
浅い霧, 近辺でにわか雨
23日の 17時(UTC)から 23日の 19時(UTC)まで徐々に
東/南東の風 12kt
23日の 20時(UTC)から 24日の 01時(UTC)まで一時的に
視程: 8000m
高度1700ftの雲は散在している, 塔状積雲.
近辺でにわか雨
確率 30% :
24日の 08時(UTC)から 24日の 12時(UTC)まで一時的に
視程: 8000m
高度1000ftの雲は散在している
高度7000ftの千切れ雲あり
霧雨, 雨

TAF: SKBO 231100Z 2312/2412 VRB02KT 9999 BKN020 TEMPO 2312/2313 8000 MIFG VCSH BECMG 2317/2319 12012KT TEMPO 2320/2401 8000 VCSH SCT017TCU PROB30 TEMPO 2408/2412 8000 DZRA SCT010 BKN070 TX21/2318Z TN08/2411Z

4,000以上の空港の気象観測と天気予報(METAR報とTAF報)

利用可能な観測所は地図上に黄色い丸と赤い丸で示す。

丸の上にカーソルを重ねると観測所名を参照できる。

次にクリックすると気象観測と天気予報を参照できる。

マップの切り替え:黒色「×」印の緑ボタンをクリックして拡大、「-」印の緑ボタンをクリックして縮小、緑色の三角印をクリックして隣りの地図に切り替え


METAR-TAF: